Tiempo atmosférico en la estación meteorológica de Antigua, Las Palmas (252 m.)



Fecha
DESCASC
Temp. máxima en grados centígrados (hora)
DESCASC
Temp. mínima en grados centígrados (hora)
DESCASC
Temp. media en grados centígrados
DESCASC
Racha de viento máxima en m/sg (hora)
DESCASC
Velocidad máxima media en intervalos de 10 minutos(hora)
DESCASC
Precipitaciones diarias en mm
DESCASC
Precipitaciones de 00:00 a 06:00 en mm
DESCASC
Precipitaciones de 06:00 a 12:00 en mm
DESCASC
Precipitaciones de 12:00 a 18:00 en mm
DESCASC
Precipitaciones de 18:00 a 24:00 en mm
DESCASC
15-08-2019 28.6 (16:20) 19.4 (01:30) 24 12.5 (14:50) 9.72 (14:40) 0 0 0 0 0
14-08-2019 26.9 (12:50) 18.5 (00:00) 22.7 13.61 (07:00) 10.28 (05:10) 0 0 0 0 0
13-08-2019 26 (14:40) 18.1 (00:00) 22.1 15.83 (16:30) 11.11 (04:20) 0 0 0 0 0
12-08-2019 25.8 (14:00) 18.7 (00:00) 22.3 16.67 (18:40) 12.5 (18:10) 0 0 0 0 0
11-08-2019 28 (14:10) 19.3 (00:00) 23.6 15.83 (09:40) 11.67 (09:40) 0 0 0 0 0
10-08-2019 29.8 (16:50) 19.3 (00:00) 24.5 14.44 (22:00) 10.28 (21:50) 0 0 0 0 0
09-08-2019 28.3 (16:00) 18.3 (00:00) 23.3 10 (20:00) 7.5 (20:30) 0 0 0 0 0
08-08-2019 29.4 (16:50) 17.7 (00:00) 23.6 8.33 (10:10) 5.56 (10:10) 0 0 0 0 0
07-08-2019 27.7 (17:30) 18.3 (00:00) 23 13.89 (10:20) 9.72 (10:20) 0 0 0 0 0
06-08-2019 24.9 (15:50) 18.9 (00:00) 21.9 15 (10:30) 11.11 (12:40) 0 0 0 0 0
05-08-2019 26.8 (14:40) 19.5 (00:00) 23.1 14.72 (15:00) 10.83 (18:40) 0 0 0 0 0
04-08-2019 25.6 (15:10) 18 (00:00) 21.8 14.17 (15:50) 10 (16:10) 0 0 0 0 0
03-08-2019 24.2 (15:20) 18.3 (00:00) 21.3 13.33 (17:30) 9.17 (18:10) 0 0 0 0 0
02-08-2019 24.9 (16:00) 18.4 (00:00) 21.6 14.44 (15:40) 11.11 (18:00) 0 0 0 0 0
01-08-2019 24.6 (14:40) 17.9 (00:00) 21.3 13.89 (01:20) 10.28 (01:20) 0 0 0 0 0
31-07-2019 23.6 (15:00) 18 (00:00) 20.8 16.39 (12:40) 11.67 (17:10) 0 0 0 0 0
30-07-2019 23.7 (15:20) 18.7 (00:00) 21.2 18.61 (16:00) 14.17 (15:30) 0 0 0 0 0
29-07-2019 25.1 (15:10) 19.2 (00:00) 22.2 16.39 (17:00) 11.94 (17:40) 0 0 0 0 0
28-07-2019 24.9 (15:00) 19.2 (00:00) 22.1 13.89 (18:10) 10.28 (22:30) 0 0 0 0 0
27-07-2019 27.3 (14:10) 18 (00:00) 22.6 13.61 (23:00) 9.44 (16:00) 0 0 0 0 0
26-07-2019 27.2 (16:30) 18.8 (00:00) 23 12.5 (04:00) 9.44 (05:30) 0 0 0 0 0
25-07-2019 28.6 (13:00) 18.1 (00:00) 23.4 13.33 (15:00) 9.72 (14:50) 0 0 0 0 0
24-07-2019 25.6 (18:00) 18.4 (00:00) 22 14.72 (00:30) 10.83 (00:10) 0 0 0 0 0
23-07-2019 25.8 (15:00) 17.8 (00:00) 21.8 16.39 (18:40) 13.06 (18:40) 0 0 0 0 0
22-07-2019 25 (15:00) 18.3 (00:00) 21.6 15.28 (23:50) 11.11 (23:10) 0 0 0 0 0
21-07-2019 27.2 (17:00) 18.4 (00:00) 22.8 13.06 (16:50) 8.89 (17:10) 0 0 0 0 0
20-07-2019 24.9 (14:40) 18 (00:00) 21.4 14.17 (19:10) 10 (19:10) 0 0 0 0 0
19-07-2019 23.8 (14:40) 18.6 (00:00) 21.2 14.44 (17:20) 10 (17:20) 0 0 0 0 0

Gráficas

Temp. máximas Temp. mínimas Temp. medias Precipitaciones Rachas de viento máximas Velocidades máximas media en intervalos de 10 minutos

Datos horarios

Fecha y hora oficial Temperatura (ºC) Velocidad del viento (km/h) Dirección del viento Racha (km/h) Dirección de racha Precipitación (mm) Presión (hPa) Tendencia (hPa) Humedad (%)
2019-08-17 23:00:00 28.3 19 Nordeste 41 Este 0 -- -- 37
2019-08-17 22:00:00 29.5 22 Nordeste 52 Nordeste 0 -- -- 32
2019-08-17 21:00:00 29.7 30 Nordeste 50 Norte 0 -- -- 32
2019-08-17 20:00:00 30 31 Nordeste 45 Este 0 -- -- 35
2019-08-17 19:00:00 31.5 30 Nordeste 44 Nordeste 0 -- -- 36
2019-08-17 18:00:00 33.2 25 Nordeste 43 Nordeste 0 -- -- 32
2019-08-17 17:00:00 33.8 17 Nordeste 32 Este 0 -- -- 30
2019-08-17 16:00:00 34.9 27 Nordeste 39 Nordeste 0 -- -- 27
2019-08-17 15:00:00 35.1 16 Norte 39 Norte 0 -- -- 26
2019-08-17 14:00:00 33.9 18 Norte 49 Nordeste 0 -- -- 27
2019-08-17 13:00:00 32.4 30 Nordeste 55 Nordeste 0 -- -- 31
2019-08-17 12:00:00 31.7 22 Norte 45 Norte 0 -- -- 33
2019-08-17 11:00:00 30 27 Nordeste 42 Nordeste 0 -- -- 38
2019-08-17 10:00:00 28.8 16 Norte 30 Noroeste 0 -- -- 43
2019-08-17 09:00:00 27.7 8 Noroeste 25 Sudeste 0 -- -- 46
2019-08-17 08:00:00 26.8 8 Sur 33 Nordeste 0 -- -- 46
2019-08-17 07:00:00 27.5 31 Nordeste 45 Nordeste 0 -- -- 41
2019-08-17 06:00:00 26.5 5 Sudeste 49 Nordeste 0 -- -- 44
2019-08-17 05:00:00 26.5 21 Nordeste 59 Nordeste 0 -- -- 46
2019-08-17 04:00:00 26.7 29 Nordeste 52 Nordeste 0 -- -- 46
2019-08-17 03:00:00 27.1 26 Norte 60 Norte 0 -- -- 44
2019-08-17 02:00:00 27.4 28 Nordeste 67 Nordeste 0 -- -- 44
2019-08-17 01:00:00 27.9 38 Nordeste 64 Norte 0 -- -- 41
2019-08-17 00:00:00 27.2 19 Nordeste 39 Nordeste 0 -- -- 44
2019-08-16 23:00:00 28 25 Nordeste 50 Nordeste 0 -- -- 43
2019-08-16 22:00:00 27.6 5 Oeste 16 Nordeste 0 -- -- 46
2019-08-16 21:00:00 29.7 7 Norte 28 Nordeste 0 -- -- 33
2019-08-16 20:00:00 31.3 13 Nordeste 24 Nordeste 0 -- -- 33
2019-08-16 19:00:00 32.1 14 Nordeste 27 Nordeste 0 -- -- 33
2019-08-16 18:00:00 31.9 13 Norte 36 Nordeste 0 -- -- 31
2019-08-16 17:00:00 33 14 Norte 33 Nordeste 0 -- -- 30
2019-08-16 16:00:00 34.8 18 Nordeste 34 Nordeste 0 -- -- 25
2019-08-16 15:00:00 34.2 22 Norte 33 Nordeste 0 -- -- 27
2019-08-16 14:00:00 32.3 24 Nordeste 43 Nordeste 0 -- -- 34
2019-08-16 13:00:00 30.9 14 Norte 45 Nordeste 0 -- -- 36
2019-08-16 12:00:00 29.3 15 Norte 37 Norte 0 -- -- 40
2019-08-16 11:00:00 28.7 21 Nordeste 33 Nordeste 0 -- -- 44
2019-08-16 10:00:00 26.7 14 Norte 26 Norte 0 -- -- 46
2019-08-16 09:00:00 26.2 11 Norte 35 Norte 0 -- -- 48
2019-08-16 08:00:00 26 20 Nordeste 34 Norte 0 -- -- 48
2019-08-16 07:00:00 21.4 12 Noroeste 30 Norte 0 -- -- 81
2019-08-16 06:00:00 20.2 14 Norte 40 Norte 0 -- -- 93
2019-08-16 05:00:00 20 24 Norte 41 Norte 0 -- -- 94
2019-08-16 04:00:00 20 28 Norte 41 Norte 0 -- -- 93
2019-08-16 03:00:00 21 21 Norte 27 Noroeste 0 -- -- 83
2019-08-16 02:00:00 23.8 13 Nordeste 27 Nordeste 0 -- -- 60
2019-08-16 01:00:00 22.7 8 Norte 20 Norte 0 -- -- 65
2019-08-16 00:00:00 21.9 12 Noroeste 20 Noroeste 0 -- -- 73
2019-08-15 23:00:00 21 17 Noroeste 26 Norte 0 -- -- 87
2019-08-15 22:00:00 21.1 21 Noroeste 30 Norte 0 -- -- 89
2019-08-15 21:00:00 21.7 23 Noroeste 31 Noroeste 0 -- -- 86
2019-08-15 20:00:00 23.4 23 Noroeste 36 Norte 0 -- -- 78
2019-08-15 19:00:00 25.4 25 Norte 37 Noroeste 0 -- -- 71
2019-08-15 18:00:00 26.8 30 Noroeste 41 Noroeste 0 -- -- 66
2019-08-15 17:00:00 28.3 25 Noroeste 38 Noroeste 0 -- -- 62
2019-08-15 16:00:00 27.9 29 Norte 41 Norte 0 -- -- 60
2019-08-15 15:00:00 27.6 35 Norte 45 Noroeste 0 -- -- 60
2019-08-15 14:00:00 27.4 31 Norte 43 Noroeste 0 -- -- 61
2019-08-15 13:00:00 27.2 28 Norte 40 Norte 0 -- -- 61
2019-08-15 12:00:00 26.8 26 Norte 35 Norte 0 -- -- 62
2019-08-15 11:00:00 24.6 24 Norte 36 Noroeste 0 -- -- 69
2019-08-15 10:00:00 22.3 27 Norte 40 Noroeste 0 -- -- 82
2019-08-15 09:00:00 20.4 34 Norte 44 Norte 0 -- -- 91
2019-08-15 08:00:00 19.7 29 Norte 42 Norte 0 -- -- 93
2019-08-15 07:00:00 19.5 29 Norte 43 Norte 0 -- -- 93
2019-08-15 06:00:00 19.6 30 Norte 44 Noroeste 0 -- -- 92
2019-08-15 05:00:00 19.5 28 Norte 41 Norte 0 -- -- 92
2019-08-15 04:00:00 19.5 28 Norte 43 Noroeste 0 -- -- 92
2019-08-15 03:00:00 19.5 28 Norte 41 Noroeste 0 -- -- 92
2019-08-15 02:00:00 19.5 32 Noroeste 44 Noroeste 0 -- -- 91
2019-08-15 01:00:00 19.6 31 Norte 44 Noroeste 0 -- -- 90
2019-08-15 00:00:00 19.7 30 Norte 43 Noroeste 0 -- -- 90
2019-08-14 23:00:00 19.9 32 Norte 44 Noroeste 0 -- -- 90
2019-08-14 22:00:00 20.1 31 Norte 42 Norte 0 -- -- 89
2019-08-14 21:00:00 20.4 33 Norte 44 Norte 0 -- -- 87
2019-08-14 20:00:00 21.5 32 Norte 44 Noroeste 0 -- -- 84
2019-08-14 19:00:00 23.3 34 Noroeste 44 Norte 0 -- -- 76
2019-08-14 18:00:00 25.3 32 Noroeste 44 Noroeste 0 -- -- 68
2019-08-14 17:00:00 26.4 32 Noroeste 42 Noroeste 0 -- -- 63
2019-08-14 16:00:00 26.5 31 Noroeste 46 Noroeste 0 -- -- 62
2019-08-14 15:00:00 26.1 35 Noroeste 46 Noroeste 0 -- -- 63
2019-08-14 14:00:00 26.3 33 Noroeste 48 Noroeste 0 -- -- 62
2019-08-14 13:00:00 26.9 30 Noroeste 44 Noroeste 0 -- -- 58
2019-08-14 12:00:00 25.8 26 Norte 37 Noroeste 0 -- -- 61
2019-08-14 11:00:00 23.8 26 Norte 40 Noroeste 0 -- -- 69
2019-08-14 10:00:00 -- 29 Norte 43 Noroeste 0 -- -- --
2019-08-14 09:00:00 20 27 Norte 42 Noroeste 0 -- -- 88
2019-08-14 08:00:00 18.8 32 Noroeste 45 Noroeste 0 -- -- 92
2019-08-14 07:00:00 18.5 35 Noroeste 49 Noroeste 0 -- -- 91
2019-08-14 06:00:00 18.6 31 Norte 48 Noroeste 0 -- -- 91
2019-08-14 05:00:00 18.6 30 Noroeste 43 Noroeste 0 -- -- 91
2019-08-14 04:00:00 18.6 31 Noroeste 45 Norte 0 -- -- 91
2019-08-14 03:00:00 18.7 35 Noroeste 47 Noroeste 0 -- -- 91
2019-08-14 02:00:00 18.8 31 Noroeste 44 Noroeste 0 -- -- 90
2019-08-14 01:00:00 18.9 29 Noroeste 43 Norte 0 -- -- 89
2019-08-14 00:00:00 19.2 30 Noroeste 46 Norte 0 -- -- 87
2019-08-13 23:00:00 19.3 32 Norte 48 Norte 0 -- -- 86
2019-08-13 22:00:00 19.6 33 Norte 49 Norte 0 -- -- 84
2019-08-13 21:00:00 19.7 34 Norte 48 Norte 0 -- -- 82
2019-08-13 20:00:00 20.7 33 Norte 50 Norte 0 -- -- 77
2019-08-13 19:00:00 22.5 36 Norte 55 Noroeste 0 -- -- 69
2019-08-13 18:00:00 23.7 36 Norte 55 Noroeste 0 -- -- 65
2019-08-13 17:00:00 24.8 37 Norte 57 Norte 0 -- -- 61
2019-08-13 16:00:00 25.5 34 Norte 51 Norte 0 -- -- 60
2019-08-13 15:00:00 25.7 35 Norte 50 Noroeste 0 -- -- 59
2019-08-13 14:00:00 25.4 32 Norte 49 Norte 0 -- -- 58
2019-08-13 13:00:00 25 31 Norte 47 Norte 0 -- -- 60
2019-08-13 12:00:00 23.9 34 Norte 52 Norte 0 -- -- 63
2019-08-13 11:00:00 22.6 36 Norte 54 Norte 0 -- -- 69
2019-08-13 10:00:00 21.2 37 Norte 52 Norte 0 -- -- 76
2019-08-13 09:00:00 19.9 36 Norte 50 Noroeste 0 -- -- 84
2019-08-13 08:00:00 18.5 31 Noroeste 46 Norte 0 -- -- 90
2019-08-13 07:00:00 18.1 29 Norte 47 Norte 0 -- -- 90
2019-08-13 06:00:00 18.3 28 Norte 43 Noroeste 0 -- -- 89
2019-08-13 05:00:00 18.5 31 Noroeste 53 Noroeste 0 -- -- 88
2019-08-13 04:00:00 18.7 39 Noroeste 50 Norte 0 -- -- 89
2019-08-13 03:00:00 18.7 36 Norte 49 Norte 0 -- -- 89
2019-08-13 02:00:00 18.8 30 Norte 50 Norte 0 -- -- 89
2019-08-13 01:00:00 18.9 31 Norte 44 Norte 0 -- -- 89
2019-08-13 00:00:00 19.1 30 Norte 48 Norte 0 -- -- 88
2019-08-12 23:00:00 19.4 32 Norte 46 Norte 0 -- -- 86
2019-08-12 22:00:00 19.6 37 Norte 53 Norte 0 -- -- 84
2019-08-12 21:00:00 19.9 37 Norte 55 Norte 0 -- -- 83
2019-08-12 20:00:00 20.9 36 Norte 56 Norte 0 -- -- 78
2019-08-12 19:00:00 -- 43 Norte 60 Norte 0 -- -- --
2019-08-12 18:00:00 23.8 42 Norte 58 Norte 0 -- -- 64
2019-08-12 17:00:00 24.6 39 Norte 54 Noroeste 0 -- -- 62
2019-08-12 16:00:00 25.1 37 Norte 51 Norte 0 -- -- 60
2019-08-12 15:00:00 25.7 36 Norte 50 Noroeste 0 -- -- 59
2019-08-12 14:00:00 25.8 35 Norte 48 Norte 0 -- -- 58
2019-08-12 13:00:00 24.8 37 Norte 47 Norte 0 -- -- 62
2019-08-12 12:00:00 24.2 34 Norte 48 Norte 0 -- -- 64
2019-08-12 11:00:00 22.9 36 Norte 56 Noroeste 0 -- -- 71
2019-08-12 10:00:00 21.6 42 Norte 55 Norte 0 -- -- 78
2019-08-12 09:00:00 20.3 40 Norte 51 Norte 0 -- -- 85
2019-08-12 08:00:00 19 39 Norte 54 Norte 0 -- -- 92
2019-08-12 07:00:00 18.8 41 Norte 52 Norte 0 -- -- 92
2019-08-12 06:00:00 18.8 37 Norte 51 Norte 0 -- -- 93
2019-08-12 05:00:00 18.8 36 Norte 51 Norte 0 -- -- 93
2019-08-12 04:00:00 18.8 34 Norte 52 Norte 0 -- -- 92
2019-08-12 03:00:00 19 36 Norte 50 Norte 0 -- -- 92
2019-08-12 02:00:00 19.2 36 Norte 51 Noroeste 0 -- -- 91
2019-08-12 01:00:00 19.3 31 Norte 48 Norte 0 -- -- 90
2019-08-12 00:00:00 19.3 36 Norte 46 Norte 0 -- -- 89
2019-08-11 23:00:00 19.5 33 Norte 46 Norte 0 -- -- 88
2019-08-11 22:00:00 19.9 30 Norte 41 Noroeste 0 -- -- 86
2019-08-11 21:00:00 20.6 26 Norte 44 Noroeste 0 -- -- 81
2019-08-11 20:00:00 22.2 33 Norte 51 Norte 0 -- -- 74
2019-08-11 19:00:00 23.9 33 Norte 49 Norte 0 -- -- 69
2019-08-11 18:00:00 25.2 35 Norte 49 Norte 0 -- -- 64
2019-08-11 17:00:00 26.5 33 Norte 48 Noroeste 0 -- -- 60
2019-08-11 16:00:00 27.4 33 Norte 46 Norte 0 -- -- 58
2019-08-11 15:00:00 28 30 Norte 47 Noroeste 0 -- -- 56
2019-08-11 14:00:00 27.7 28 Norte 42 Norte 0 -- -- 56
2019-08-11 13:00:00 26.7 28 Norte 42 Noroeste 0 -- -- 60
2019-08-11 12:00:00 25.3 28 Norte 46 Norte 0 -- -- 65
2019-08-11 11:00:00 23.5 35 Norte 56 Norte 0 -- -- 73
2019-08-11 10:00:00 22 41 Norte 57 Norte 0 -- -- 78
2019-08-11 09:00:00 20.9 36 Noroeste 51 Norte 0 -- -- 85
2019-08-11 08:00:00 20.1 30 Norte 44 Noroeste 0 -- -- 92
2019-08-11 07:00:00 19.9 26 Norte 43 Norte 0 -- -- 93
2019-08-11 06:00:00 20 31 Norte 43 Norte 0 -- -- 94
2019-08-11 05:00:00 19.9 19 Norte 41 Norte 0 -- -- 94
2019-08-11 04:00:00 19.9 32 Noroeste 41 Noroeste 0 -- -- 94
2019-08-11 03:00:00 20.2 23 Norte 34 Norte 0 -- -- 92
2019-08-11 02:00:00 21 21 Norte 30 Noroeste 0 -- -- 87
2019-08-11 01:00:00 22 18 Norte 31 Nordeste 0 -- -- 83
2019-08-11 00:00:00 21.9 17 Norte 42 Norte 0 -- -- 88
2019-08-10 23:00:00 21.9 32 Norte 50 Norte 0 -- -- 89
2019-08-10 22:00:00 22 34 Norte 52 Norte 0 -- -- 89
2019-08-10 21:00:00 22.1 33 Norte 49 Norte 0 -- -- 87
2019-08-10 20:00:00 22.9 26 Norte 44 Noroeste 0 -- -- 84
2019-08-10 19:00:00 25.6 32 Norte 49 Noroeste 0 -- -- 70
2019-08-10 18:00:00 27.1 33 Norte 43 Noroeste 0 -- -- 66
2019-08-10 17:00:00 29.2 29 Noroeste 39 Noroeste 0 -- -- 56
2019-08-10 16:00:00 29.6 27 Norte 43 Noroeste 0 -- -- 54
2019-08-10 15:00:00 29.5 26 Norte 42 Norte 0 -- -- 57
2019-08-10 14:00:00 28.8 28 Norte 40 Noroeste 0 -- -- 58
2019-08-10 13:00:00 29.3 16 Norte 33 Nordeste 0 -- -- 50
2019-08-10 12:00:00 27.3 26 Nordeste 36 Nordeste 0 -- -- 59
2019-08-10 11:00:00 26.4 17 Norte 31 Nordeste 0 -- -- 57
2019-08-10 10:00:00 24.4 19 Nordeste 30 Nordeste 0 -- -- 68
2019-08-10 09:00:00 21.2 16 Norte 31 Norte 0 -- -- 90
2019-08-10 08:00:00 19.8 23 Norte 36 Norte 0 -- -- 94
2019-08-10 07:00:00 19.5 28 Norte 44 Noroeste 0 -- -- 94
2019-08-10 06:00:00 19.5 24 Norte 40 Noroeste 0 -- -- 94
2019-08-10 05:00:00 19.4 31 Noroeste 39 Noroeste 0 -- -- 94
2019-08-10 04:00:00 19.4 23 Noroeste 33 Noroeste 0 -- -- 94
2019-08-10 03:00:00 19.5 26 Noroeste 34 Noroeste 0 -- -- 94
2019-08-10 02:00:00 19.6 19 Norte 30 Noroeste 0 -- -- 93
2019-08-10 01:00:00 19.8 19 Noroeste 31 Noroeste 0 -- -- 92
2019-08-10 00:00:00 20.4 23 Noroeste 29 Noroeste 0 -- -- 88
2019-08-09 23:00:00 20.3 19 Noroeste 27 Norte 0 -- -- 90
2019-08-09 22:00:00 20.8 20 Noroeste 31 Noroeste 0 -- -- 88
2019-08-09 21:00:00 21.9 24 Noroeste 35 Noroeste 0 -- -- 81
2019-08-09 20:00:00 23.9 23 Norte 36 Noroeste 0 -- -- 74
2019-08-09 19:00:00 26.8 17 Norte 30 Norte 0 -- -- 64
2019-08-09 18:00:00 27.5 17 Nordeste 27 Este 0 -- -- 58
2019-08-09 17:00:00 27.7 15 Nordeste 28 Nordeste 0 -- -- 53
2019-08-09 16:00:00 28.3 15 Nordeste 26 Nordeste 0 -- -- 52
2019-08-09 15:00:00 27.9 18 Este 27 Este 0 -- -- 53
2019-08-09 14:00:00 27.3 14 Este 25 Este 0 -- -- 59
2019-08-09 13:00:00 26.7 14 Este 23 Este 0 -- -- 62
2019-08-09 12:00:00 25.5 12 Nordeste 22 Nordeste 0 -- -- 61
2019-08-09 11:00:00 23.4 15 Nordeste 26 Nordeste 0 -- -- 73
2019-08-09 10:00:00 21.9 14 Nordeste 23 Nordeste 0 -- -- 78
2019-08-09 09:00:00 20.1 5 Norte 21 Nordeste 0 -- -- 89
2019-08-09 08:00:00 18.8 9 Norte 15 Nordeste 0 -- -- 93
2019-08-09 07:00:00 18.5 7 Norte 16 Norte 0 -- -- 93
2019-08-09 06:00:00 18.5 6 Nordeste 16 Norte 0 -- -- 92
2019-08-09 05:00:00 18.6 6 Norte 9 Norte 0 -- -- 90
2019-08-09 04:00:00 19.1 8 Norte 13 Norte 0 -- -- 91
2019-08-09 03:00:00 19.4 3 Norte 14 Nordeste 0 -- -- 90
2019-08-09 02:00:00 19.7 5 Norte 12 Este 0 -- -- 89
2019-08-09 01:00:00 20 9 Nordeste 18 Nordeste 0 -- -- 89
2019-08-09 00:00:00 20.5 8 Nordeste 14 Nordeste 0 -- -- 87
2019-08-08 23:00:00 20.8 5 Nordeste 16 Este 0 -- -- 87
2019-08-08 22:00:00 21.2 9 Este 18 Norte 0 -- -- 84
2019-08-08 21:00:00 22.9 15 Norte 20 Norte 0 -- -- 76
2019-08-08 20:00:00 24.9 6 Norte 18 Este 0 -- -- 69
2019-08-08 19:00:00 26.2 14 Este 22 Norte 0 -- -- 65
2019-08-08 18:00:00 27.7 14 Este 27 Este 0 -- -- 59
2019-08-08 17:00:00 29.2 13 Norte 21 Norte 0 -- -- 54
2019-08-08 16:00:00 27.7 11 Este 25 Este 0 -- -- 59
2019-08-08 15:00:00 27.1 11 Este 22 Sudeste 0 -- -- 61
2019-08-08 14:00:00 26.3 13 Este 25 Este 0 -- -- 63
2019-08-08 13:00:00 26.4 15 Este 27 Sudeste 0 -- -- 63
2019-08-08 12:00:00 26.7 6 Sudeste 14 Este 0 -- -- 56
2019-08-08 11:00:00 23.9 5 Nordeste 30 Norte 0 -- -- 68
2019-08-08 10:00:00 22 18 Norte 23 Norte 0 -- -- 78
2019-08-08 09:00:00 20.3 5 Norte 23 Norte 0 -- -- 86
2019-08-08 08:00:00 19.2 17 Norte 26 Norte 0 -- -- 89
2019-08-08 07:00:00 18.2 11 Noroeste 14 Noroeste 0 -- -- 92
2019-08-08 06:00:00 17.7 2 Noroeste 5 Noroeste 0 -- -- 91
2019-08-08 05:00:00 18.3 5 Noroeste 12 Este 0 -- -- 91
2019-08-08 04:00:00 19.1 10 Nordeste 21 Nordeste 0 -- -- 91
2019-08-08 03:00:00 19.1 9 Norte 15 Norte 0 -- -- 91
2019-08-08 02:00:00 19.3 6 Norte 11 Norte 0 -- -- 88
2019-08-08 01:00:00 19.3 7 Norte 12 Noroeste 0 -- -- 86
2019-08-08 00:00:00 20 2 Norte 9 Norte 0 -- -- 84
2019-08-07 23:00:00 20.3 6 Nordeste 23 Nordeste 0 -- -- 85
2019-08-07 22:00:00 20.5 16 Nordeste 26 Nordeste 0 -- -- 86
2019-08-07 21:00:00 21.4 16 Nordeste 25 Nordeste 0 -- -- 81
2019-08-07 20:00:00 23.4 13 Nordeste 31 Noroeste 0 -- -- 72
2019-08-07 19:00:00 24.9 23 Norte 32 Noroeste 0 -- -- 67
2019-08-07 18:00:00 26.4 24 Norte 32 Noroeste 0 -- -- 61
2019-08-07 17:00:00 26.9 17 Norte 34 Nordeste 0 -- -- 55
2019-08-07 16:00:00 25.7 19 Nordeste 32 Nordeste 0 -- -- 62
2019-08-07 15:00:00 25.8 22 Nordeste 32 Este 0 -- -- 62
2019-08-07 14:00:00 25.9 18 Nordeste 28 Noroeste 0 -- -- 63
2019-08-07 13:00:00 26.2 22 Norte 36 Norte 0 -- -- 59
2019-08-07 12:00:00 24.2 28 Norte 44 Noroeste 0 -- -- 65
2019-08-07 11:00:00 22.6 33 Norte 50 Noroeste 0 -- -- 72
2019-08-07 10:00:00 21.4 33 Norte 45 Norte 0 -- -- 78
2019-08-07 09:00:00 19.8 24 Norte 35 Norte 0 -- -- 87
2019-08-07 08:00:00 18.5 19 Noroeste 30 Norte 0 -- -- 91
2019-08-07 07:00:00 18.6 21 Norte 37 Norte 0 -- -- 90
2019-08-07 06:00:00 18.9 29 Norte 42 Norte 0 -- -- 88
2019-08-07 05:00:00 18.9 28 Norte 42 Norte 0 -- -- 89
2019-08-07 04:00:00 18.8 24 Norte 39 Norte 0 -- -- 89
2019-08-07 03:00:00 18.7 20 Norte 33 Noroeste 0 -- -- 90
2019-08-07 02:00:00 18.7 20 Norte 31 Norte 0 -- -- 90
2019-08-07 01:00:00 18.7 20 Norte 28 Norte 0 -- -- 91
2019-08-07 00:00:00 18.9 14 Noroeste 22 Norte 0 -- -- 90
2019-08-06 23:00:00 19.2 19 Norte 35 Norte 0 -- -- 89
2019-08-06 22:00:00 19.5 23 Norte 41 Norte 0 -- -- 87
2019-08-06 21:00:00 20.1 31 Norte 43 Norte 0 -- -- 84
2019-08-06 20:00:00 21.1 29 Norte 46 Noroeste 0 -- -- 78
2019-08-06 19:00:00 22.3 32 Noroeste 49 Norte 0 -- -- 73
2019-08-06 18:00:00 23 35 Noroeste 49 Noroeste 0 -- -- 70
2019-08-06 17:00:00 24.2 33 Noroeste 52 Norte 0 -- -- 66
2019-08-06 16:00:00 24.4 36 Norte 46 Noroeste 0 -- -- 65
2019-08-06 15:00:00 24.4 31 Noroeste 49 Norte 0 -- -- 65
2019-08-06 14:00:00 24.5 34 Norte 50 Norte 0 -- -- 64
2019-08-06 13:00:00 24 38 Norte 53 Norte 0 -- -- 66
2019-08-06 12:00:00 23.5 35 Norte 50 Norte 0 -- -- 70
2019-08-06 11:00:00 22.8 34 Norte 54 Norte 0 -- -- 70
2019-08-06 10:00:00 21.6 39 Norte 52 Norte 0 -- -- 75
2019-08-06 09:00:00 20.7 37 Norte 53 Norte 0 -- -- 78
2019-08-06 08:00:00 19.7 36 Norte 51 Norte 0 -- -- 81
2019-08-06 07:00:00 19.6 31 Norte 48 Norte 0 -- -- 82
2019-08-06 06:00:00 19.5 33 Norte 46 Norte 0 -- -- 83
2019-08-06 05:00:00 19.6 33 Norte 47 Noroeste 0 -- -- 83
2019-08-06 04:00:00 19.6 30 Norte 42 Norte 0 -- -- 86
2019-08-06 03:00:00 19.7 27 Norte 39 Norte 0 -- -- 89
2019-08-06 02:00:00 19.6 28 Norte 48 Norte 0 -- -- 88
2019-08-06 01:00:00 19.6 32 Norte 48 Norte 0 -- -- 88
2019-08-06 00:00:00 19.5 33 Norte 48 Norte 0 -- -- 88
2019-08-05 23:00:00 19.9 33 Norte 46 Noroeste 0 -- -- 86
2019-08-05 22:00:00 19.8 32 Norte 48 Norte 0 -- -- 86
2019-08-05 21:00:00 20.2 32 Norte 49 Noroeste 0 -- -- 84
2019-08-05 20:00:00 21.1 37 Norte 51 Norte 0 -- -- 79
2019-08-05 19:00:00 23.2 35 Norte 51 Norte 0 -- -- 71
2019-08-05 18:00:00 24.4 35 Noroeste 52 Noroeste 0 -- -- 67
2019-08-05 17:00:00 25 37 Noroeste 51 Noroeste 0 -- -- 65
2019-08-05 16:00:00 25.4 37 Noroeste 52 Noroeste 0 -- -- 63
2019-08-05 15:00:00 26.5 35 Noroeste 53 Noroeste 0 -- -- 60
2019-08-05 14:00:00 25.8 36 Noroeste 48 Noroeste 0 -- -- 63
2019-08-05 13:00:00 25 33 Norte 44 Noroeste 0 -- -- 64
2019-08-05 12:00:00 24.8 30 Norte 44 Noroeste 0 -- -- 65
2019-08-05 11:00:00 23.4 27 Norte 40 Norte 0 -- -- 68
2019-08-05 10:00:00 22.6 18 Norte 30 Norte 0 -- -- 69
2019-08-05 09:00:00 20.8 22 Norte 33 Norte 0 -- -- 76
2019-08-05 08:00:00 19.8 18 Norte 37 Norte 0 -- -- 80
2019-08-05 07:00:00 19.5 26 Norte 38 Norte 0 -- -- 81
2019-08-05 06:00:00 19.7 24 Norte 39 Norte 0 -- -- 83
2019-08-05 05:00:00 19.8 23 Norte 37 Norte 0 -- -- 84
2019-08-05 04:00:00 19.8 22 Norte 37 Norte 0 -- -- 84
2019-08-05 03:00:00 20 24 Norte 38 Norte 0 -- -- 82
2019-08-05 02:00:00 19.8 21 Norte 36 Norte 0 -- -- 85
2019-08-05 01:00:00 20.1 25 Norte 34 Norte 0 -- -- 86
2019-08-05 00:00:00 20.2 24 Norte 31 Norte 0 -- -- 87
2019-08-04 23:00:00 20.6 23 Norte 38 Norte 0 -- -- 85
2019-08-04 22:00:00 20.5 30 Norte 40 Norte 0 -- -- 84
2019-08-04 21:00:00 20.8 29 Norte 45 Norte 0 -- -- 80
2019-08-04 20:00:00 22.1 29 Norte 51 Norte 0 -- -- 71
2019-08-04 19:00:00 23.1 33 Noroeste 48 Norte 0 -- -- 69
2019-08-04 18:00:00 24.8 30 Norte 49 Norte 0 -- -- 60
2019-08-04 17:00:00 25.5 29 Norte 51 Noroeste 0 -- -- 55
2019-08-04 16:00:00 25.1 35 Noroeste 51 Noroeste 0 -- -- 59
2019-08-04 15:00:00 25.2 34 Noroeste 48 Noroeste 0 -- -- 57
2019-08-04 14:00:00 25.2 32 Norte 46 Norte 0 -- -- 57
2019-08-04 13:00:00 24.6 28 Norte 43 Norte 0 -- -- 58
2019-08-04 12:00:00 23.9 30 Norte 40 Norte 0 -- -- 62
2019-08-04 11:00:00 23.2 29 Norte 45 Norte 0 -- -- 65
2019-08-04 10:00:00 21.4 33 Norte 47 Norte 0 -- -- 69
2019-08-04 09:00:00 20.7 25 Norte 36 Norte 0 -- -- 73
2019-08-04 08:00:00 19.4 20 Norte 35 Norte 0 -- -- 79
2019-08-04 07:00:00 18.9 18 Norte 31 Norte 0 -- -- 81
2019-08-04 06:00:00 18.4 19 Norte 28 Norte 0 -- -- 82
2019-08-04 05:00:00 18 17 Norte 27 Norte 0 -- -- 86
2019-08-04 04:00:00 18.1 20 Norte 31 Norte 0 -- -- 88
2019-08-04 03:00:00 18.3 25 Norte 34 Norte 0 -- -- 85
2019-08-04 02:00:00 18.6 21 Norte 32 Norte 0 -- -- 85
2019-08-04 01:00:00 18.8 22 Norte 35 Norte 0 -- -- 82
2019-08-04 00:00:00 18.7 19 Norte 36 Norte 0 -- -- 83
2019-08-03 23:00:00 18.9 24 Norte 33 Norte 0 -- -- 83
2019-08-03 22:00:00 19.3 21 Norte 37 Norte 0 -- -- 82
2019-08-03 21:00:00 19.9 23 Norte 37 Noroeste 0 -- -- 76
2019-08-03 20:00:00 21.2 26 Norte 42 Noroeste 0 -- -- 72
2019-08-03 19:00:00 22.3 31 Noroeste 46 Noroeste 0 -- -- 68
2019-08-03 18:00:00 23.3 32 Noroeste 48 Noroeste 0 -- -- 64
2019-08-03 17:00:00 23.5 31 Norte 45 Noroeste 0 -- -- 63
2019-08-03 16:00:00 23.8 31 Noroeste 46 Norte 0 -- -- 61
2019-08-03 15:00:00 23.9 32 Noroeste 43 Norte 0 -- -- 64
2019-08-03 14:00:00 23.9 31 Norte 46 Noroeste 0 -- -- 63
2019-08-03 13:00:00 23.9 27 Norte 42 Norte 0 -- -- 63
2019-08-03 12:00:00 23.1 30 Norte 46 Noroeste 0 -- -- 66
2019-08-03 11:00:00 22.2 27 Norte 40 Norte 0 -- -- 67
2019-08-03 10:00:00 20.9 26 Norte 43 Norte 0 -- -- 73
2019-08-03 09:00:00 19.6 28 Norte 41 Norte 0 -- -- 79
2019-08-03 08:00:00 18.9 28 Norte 43 Noroeste 0 -- -- 80
2019-08-03 07:00:00 18.5 24 Norte 41 Norte 0 -- -- 81
2019-08-03 06:00:00 18.7 27 Norte 39 Norte 0 -- -- 81
2019-08-03 05:00:00 18.9 18 Norte 28 Norte 0 -- -- 81
2019-08-03 04:00:00 18.7 15 Norte 23 Norte 0 -- -- 80
2019-08-03 03:00:00 18.6 11 Norte 15 Norte 0 -- -- 81
2019-08-03 02:00:00 18.6 5 Norte 10 Norte 0 -- -- 83
2019-08-03 01:00:00 18.6 10 Norte 22 Norte 0 -- -- 83
2019-08-03 00:00:00 18.8 20 Norte 32 Norte 0 -- -- 84
2019-08-02 23:00:00 19.2 20 Norte 35 Norte 0 -- -- 84
2019-08-02 22:00:00 19.5 30 Norte 45 Norte 0 -- -- 81
2019-08-02 21:00:00 19.7 34 Norte 50 Norte 0 -- -- 79
2019-08-02 20:00:00 20.8 37 Norte 50 Noroeste 0 -- -- 74
2019-08-02 19:00:00 22.4 32 Norte 50 Noroeste 0 -- -- 70
2019-08-02 18:00:00 23.1 40 Noroeste 50 Noroeste 0 -- -- 66
2019-08-02 17:00:00 24.1 32 Norte 50 Norte 0 -- -- 62
2019-08-02 16:00:00 24.9 32 Norte 52 Noroeste 0 -- -- 56
2019-08-02 15:00:00 24.5 33 Noroeste 45 Norte 0 -- -- 59
2019-08-02 14:00:00 24.8 32 Norte 45 Norte 0 -- -- 58
2019-08-02 13:00:00 24 28 Norte 39 Noroeste 0 -- -- 60
2019-08-02 12:00:00 23.4 28 Norte 42 Noroeste 0 -- -- 61
2019-08-02 11:00:00 22.6 26 Norte 38 Norte 0 -- -- 64
2019-08-02 10:00:00 21 23 Norte 36 Norte 0 -- -- 70
2019-08-02 09:00:00 20 25 Norte 33 Norte 0 -- -- 72
2019-08-02 08:00:00 18.8 21 Norte 33 Norte 0 -- -- 78
2019-08-02 07:00:00 18.4 18 Norte 31 Norte 0 -- -- 79
2019-08-02 06:00:00 18.6 19 Norte 31 Norte 0 -- -- 78
2019-08-02 05:00:00 18.6 17 Norte 23 Norte 0 -- -- 77
2019-08-02 04:00:00 18.9 15 Norte 25 Norte 0 -- -- 80
2019-08-02 03:00:00 18.9 17 Norte 23 Norte 0 -- -- 82
2019-08-02 02:00:00 18.4 14 Norte 27 Noroeste 0 -- -- 85
2019-08-02 01:00:00 18.6 14 Norte 34 Norte 0 -- -- 86
2019-08-02 00:00:00 18.9 26 Norte 37 Norte 0 -- -- 83
2019-08-01 23:00:00 19.3 22 Norte 39 Norte 0 -- -- 81
2019-08-01 22:00:00 19.2 26 Norte 45 Noroeste 0 -- -- 82
2019-08-01 21:00:00 19.6 30 Noroeste 45 Noroeste 0 -- -- 83
2019-08-01 20:00:00 20.7 31 Norte 46 Norte 0 -- -- 76
2019-08-01 19:00:00 22.2 33 Norte 48 Noroeste 0 -- -- 67
2019-08-01 18:00:00 23.1 31 Noroeste 41 Noroeste 0 -- -- 64
2019-08-01 17:00:00 23.9 31 Norte 48 Noroeste 0 -- -- 61
2019-08-01 16:00:00 24.1 29 Norte 45 Noroeste 0 -- -- 60
2019-08-01 15:00:00 24.4 30 Noroeste 44 Noroeste 0 -- -- 59
2019-08-01 14:00:00 24.4 30 Noroeste 44 Norte 0 -- -- 61
2019-08-01 13:00:00 23.8 26 Norte 46 Noroeste 0 -- -- 61
2019-08-01 12:00:00 23.4 27 Norte 39 Norte 0 -- -- 61
2019-08-01 11:00:00 22.2 22 Norte 37 Norte 0 -- -- 63
2019-08-01 10:00:00 21.5 25 Norte 36 Norte 0 -- -- 68
2019-08-01 09:00:00 20.3 24 Norte 37 Norte 0 -- -- 74
2019-08-01 08:00:00 18.6 15 Norte 35 Norte 0 -- -- 82
2019-08-01 07:00:00 18.5 26 Norte 42 Norte 0 -- -- 79
2019-08-01 06:00:00 18.8 31 Norte 43 Norte 0 -- -- 77
2019-08-01 05:00:00 18.7 27 Norte 41 Norte 0 -- -- 77
2019-08-01 04:00:00 18.6 29 Norte 42 Norte 0 -- -- 78
2019-08-01 03:00:00 18.5 32 Norte 46 Norte 0 -- -- 77
2019-08-01 02:00:00 18.5 32 Norte 50 Norte 0 -- -- 78
2019-08-01 01:00:00 -- 35 Norte 49 Norte 0 -- -- --
2019-08-01 00:00:00 18.8 31 Norte 49 Norte 0 -- -- 76
2019-07-31 23:00:00 19 32 Norte 46 Norte 0 -- -- 75
2019-07-31 22:00:00 19.3 28 Noroeste 48 Noroeste 0 -- -- 76
2019-07-31 21:00:00 19.2 35 Noroeste 51 Norte 0 -- -- 75
2019-07-31 20:00:00 19.7 36 Noroeste 52 Noroeste 0 -- -- 73
2019-07-31 19:00:00 21 35 Noroeste 52 Noroeste 0 -- -- 69
2019-07-31 18:00:00 22.3 37 Norte 55 Noroeste 0 -- -- 65
2019-07-31 17:00:00 22.7 41 Norte 54 Noroeste 0 -- -- 63
2019-07-31 16:00:00 23.1 39 Noroeste 54 Noroeste 0 -- -- 59
2019-07-31 15:00:00 23.6 33 Norte 53 Noroeste 0 -- -- 59
2019-07-31 14:00:00 23.4 35 Norte 55 Noroeste 0 -- -- 62
2019-07-31 13:00:00 22.8 38 Noroeste 59 Noroeste 0 -- -- 60
2019-07-31 12:00:00 22.2 40 Norte 54 Noroeste 0 -- -- 63
2019-07-31 11:00:00 21.8 36 Norte 53 Noroeste 0 -- -- 62
2019-07-31 10:00:00 20.8 35 Norte 54 Norte 0 -- -- 69
2019-07-31 09:00:00 19.7 32 Norte 47 Norte 0 -- -- 72
2019-07-31 08:00:00 18.5 34 Norte 48 Norte 0 -- -- 77
2019-07-31 07:00:00 18.1 34 Noroeste 47 Noroeste 0 -- -- 79
2019-07-31 06:00:00 18.2 41 Norte 52 Noroeste 0 -- -- 81
2019-07-31 05:00:00 18.5 36 Noroeste 47 Noroeste 0 -- -- 83
2019-07-31 04:00:00 18.3 33 Norte 49 Noroeste 0 -- -- 81
2019-07-31 03:00:00 18.4 33 Noroeste 51 Noroeste 0 -- -- 79
2019-07-31 02:00:00 18.6 35 Norte 53 Norte 0 -- -- 79
2019-07-31 01:00:00 18.7 34 Norte 50 Noroeste 0 -- -- 78
2019-07-31 00:00:00 18.8 35 Noroeste 51 Noroeste 0 -- -- 80
2019-07-30 23:00:00 18.9 35 Noroeste 55 Noroeste 0 -- -- 80
2019-07-30 22:00:00 19.1 40 Noroeste 57 Noroeste 0 -- -- 81
2019-07-30 21:00:00 19.4 43 Noroeste 55 Norte 0 -- -- 80
2019-07-30 20:00:00 20 46 Noroeste 64 Noroeste 0 -- -- 76
2019-07-30 19:00:00 21.3 42 Norte 63 Norte 0 -- -- 70
2019-07-30 18:00:00 22 50 Norte 66 Noroeste 0 -- -- 67
2019-07-30 17:00:00 22.6 48 Norte 65 Noroeste 0 -- -- 64
2019-07-30 16:00:00 23 50 Noroeste 67 Noroeste 0 -- -- 63
2019-07-30 15:00:00 23.4 44 Norte 61 Noroeste 0 -- -- 64
2019-07-30 14:00:00 22.3 46 Norte 61 Norte 0 -- -- 69
2019-07-30 13:00:00 22.1 42 Norte 57 Norte 0 -- -- 71
2019-07-30 12:00:00 21.3 34 Norte 53 Norte 0 -- -- 76
2019-07-30 11:00:00 20.2 31 Norte 49 Norte 0 -- -- 81
2019-07-30 10:00:00 19.9 35 Norte 52 Norte 0 -- -- 81
2019-07-30 09:00:00 19.5 31 Norte 48 Norte 0 -- -- 86
2019-07-30 08:00:00 19.3 28 Norte 46 Norte 0 -- -- 84
2019-07-30 07:00:00 19.2 31 Norte 44 Norte 0 -- -- 85
2019-07-30 06:00:00 19 27 Norte 48 Norte 0 -- -- 90
2019-07-30 05:00:00 19.2 32 Norte 48 Norte 0 -- -- 89
2019-07-30 04:00:00 19.7 32 Norte 49 Norte 0 -- -- 89
2019-07-30 03:00:00 20.1 30 Norte 49 Norte 0 -- -- 88
2019-07-30 02:00:00 20.5 32 Norte 50 Norte 0 -- -- 88
2019-07-30 01:00:00 20.5 36 Norte 54 Norte 0 -- -- 84
2019-07-30 00:00:00 20.5 35 Norte 48 Norte 0 -- -- 86
2019-07-29 23:00:00 20.4 32 Norte 45 Norte 0 -- -- 85
2019-07-29 22:00:00 20.4 33 Norte 50 Norte 0 -- -- 83
2019-07-29 21:00:00 20.4 37 Norte 53 Norte 0 -- -- 82
2019-07-29 20:00:00 20.9 39 Norte 50 Norte 0 -- -- 78
2019-07-29 19:00:00 21.9 36 Norte 57 Noroeste 0 -- -- 73
2019-07-29 18:00:00 22.8 41 Norte 58 Noroeste 0 -- -- 69
2019-07-29 17:00:00 24.1 37 Norte 59 Noroeste 0 -- -- 63
2019-07-29 16:00:00 24.7 37 Norte 56 Norte 0 -- -- 60
2019-07-29 15:00:00 24.9 33 Norte 51 Noroeste 0 -- -- 57
2019-07-29 14:00:00 25 33 Norte 49 Norte 0 -- -- 56
2019-07-29 13:00:00 24.4 30 Norte 51 Norte 0 -- -- 59
2019-07-29 12:00:00 23.4 34 Norte 50 Norte 0 -- -- 62
2019-07-29 11:00:00 22.3 32 Norte 50 Norte 0 -- -- 64
2019-07-29 10:00:00 22.2 33 Norte 50 Norte 0 -- -- 67
2019-07-29 09:00:00 21.1 29 Norte 42 Norte 0 -- -- 69
2019-07-29 08:00:00 19.5 26 Norte 40 Norte 0 -- -- 74
2019-07-29 07:00:00 19.4 22 Norte 38 Norte 0 -- -- 82
2019-07-29 06:00:00 19.5 24 Norte 36 Noroeste 0 -- -- 80
2019-07-29 05:00:00 19.4 23 Norte 36 Norte 0 -- -- 77
2019-07-29 04:00:00 19.3 21 Norte 38 Norte 0 -- -- 76
2019-07-29 03:00:00 19.5 28 Norte 43 Norte 0 -- -- 76
2019-07-29 02:00:00 19.5 34 Norte 45 Norte 0 -- -- 78
2019-07-29 01:00:00 19.5 33 Norte 46 Norte 0 -- -- 83
2019-07-29 00:00:00 20.1 33 Norte 47 Norte 0 -- -- 78
2019-07-28 23:00:00 20.2 30 Norte 48 Norte 0 -- -- 77
2019-07-28 22:00:00 20 32 Norte 46 Norte 0 -- -- 80
2019-07-28 21:00:00 20.3 35 Norte 45 Norte 0 -- -- 76
2019-07-28 20:00:00 21.4 32 Norte 46 Norte 0 -- -- 75
2019-07-28 19:00:00 22.6 33 Norte 50 Norte 0 -- -- 68
2019-07-28 18:00:00 22.8 33 Norte 47 Norte 0 -- -- 73
2019-07-28 17:00:00 22.5 30 Norte 46 Norte 0 -- -- 75
2019-07-28 16:00:00 23.7 33 Norte 47 Noroeste 0 -- -- 73
2019-07-28 15:00:00 24.9 33 Norte 48 Norte 0 -- -- 68
2019-07-28 14:00:00 24.3 35 Norte 49 Noroeste 0 -- -- 70
2019-07-28 13:00:00 23.6 31 Norte 42 Norte 0 -- -- 75
2019-07-28 12:00:00 23.4 28 Norte 42 Norte 0 -- -- 77
2019-07-28 11:00:00 21.6 25 Norte 39 Norte 0 -- -- 91
2019-07-28 10:00:00 20.6 22 Norte 44 Norte 0 -- -- 95
2019-07-28 09:00:00 19.5 24 Norte 42 Norte 0 -- -- 96
2019-07-28 08:00:00 19.6 26 Norte 41 Norte 0 -- -- 95
2019-07-28 07:00:00 19.9 26 Norte 45 Noroeste 0 -- -- 91
2019-07-28 06:00:00 20 31 Norte 46 Norte 0 -- -- 86
2019-07-28 05:00:00 19.9 24 Norte 36 Norte 0 -- -- 89
2019-07-28 04:00:00 19.9 23 Norte 37 Norte 0 -- -- 89
2019-07-28 03:00:00 19.8 25 Norte 43 Norte 0 -- -- 87
2019-07-28 02:00:00 19.7 26 Norte 39 Norte 0 -- -- 88
2019-07-28 01:00:00 19.5 28 Norte 49 Norte 0 -- -- 88
2019-07-28 00:00:00 19.3 33 Norte 48 Norte 0 -- -- 85
2019-07-27 23:00:00 19.1 30 Norte 49 Norte 0 -- -- 85
2019-07-27 22:00:00 19.2 33 Norte 46 Norte 0 -- -- 83
2019-07-26 11:00:00 -- -- -- -- -- -- -- -- --
2019-07-26 10:00:00 22.8 18 Norte 30 Norte 0 -- -- 77
2019-07-26 09:00:00 20.1 11 Nordeste 25 Norte 0 -- -- 93
2019-07-26 08:00:00 19 19 Norte 36 Noroeste 0 -- -- 95
2019-07-26 07:00:00 18.8 24 Noroeste 36 Norte 0 -- -- 95
2019-07-26 06:00:00 18.9 31 Norte 44 Noroeste 0 -- -- 94
2019-07-26 05:00:00 19 30 Norte 44 Norte 0 -- -- 94
2019-07-26 04:00:00 19.1 33 Noroeste 45 Noroeste 0 -- -- 93
2019-07-26 03:00:00 19.3 28 Noroeste 36 Noroeste 0 -- -- 90
2019-07-26 02:00:00 20.4 17 Noroeste 23 Noroeste 0 -- -- 68
2019-07-26 01:00:00 19.2 11 Noroeste 25 Noroeste 0 -- -- 90
2019-07-26 00:00:00 19.5 19 Noroeste 37 Norte 0 -- -- 91
2019-07-25 23:00:00 19.8 27 Norte 42 Norte 0 -- -- 90
2019-07-25 22:00:00 20.4 25 Norte 40 Norte 0 -- -- 86
2019-07-25 21:00:00 21 29 Norte 41 Noroeste 0 -- -- 84
2019-07-25 20:00:00 22.5 33 Noroeste 42 Noroeste 0 -- -- 78
2019-07-25 19:00:00 24.5 29 Noroeste 41 Norte 0 -- -- 70
2019-07-25 18:00:00 26.1 28 Norte 41 Noroeste 0 -- -- 63
2019-07-25 17:00:00 27.3 29 Noroeste 40 Noroeste 0 -- -- 59
2019-07-25 16:00:00 27.5 30 Norte 44 Norte 0 -- -- 59
2019-07-25 15:00:00 27.9 35 Norte 48 Noroeste 0 -- -- 57
2019-07-25 14:00:00 27.9 31 Noroeste 42 Noroeste 0 -- -- 57
2019-07-25 13:00:00 28.6 21 Norte 33 Norte 0 -- -- 51
2019-07-25 12:00:00 27.6 23 Norte 32 Norte 0 -- -- 45
2019-07-25 11:00:00 24.9 21 Nordeste 30 Nordeste 0 -- -- 57
2019-07-25 10:00:00 22.3 23 Noroeste 38 Noroeste 0 -- -- 77
2019-07-25 09:00:00 19.6 27 Noroeste 41 Noroeste 0 -- -- 92
2019-07-25 08:00:00 18.4 27 Noroeste 39 Noroeste 0 -- -- 96
2019-07-25 07:00:00 18.2 26 Norte 44 Noroeste 0 -- -- 95
2019-07-25 06:00:00 18.3 34 Noroeste 46 Noroeste 0 -- -- 96
2019-07-25 05:00:00 18.2 25 Noroeste 33 Noroeste 0 -- -- 96
2019-07-25 04:00:00 18.3 28 Noroeste 36 Noroeste 0 -- -- 96
2019-07-25 03:00:00 18.5 26 Noroeste 35 Noroeste 0 -- -- 95
2019-07-25 02:00:00 18.7 19 Noroeste 32 Noroeste 0 -- -- 94
2019-07-25 01:00:00 19.2 25 Norte 35 Noroeste 0 -- -- 93
2019-07-25 00:00:00 19.4 24 Norte 34 Norte 0 -- -- 92
2019-07-24 23:00:00 19.4 24 Norte 40 Norte 0 -- -- 91
2019-07-24 22:00:00 19.8 27 Norte 40 Noroeste 0 -- -- 89
2019-07-24 21:00:00 20.7 28 Norte 40 Noroeste 0 -- -- 85
2019-07-24 20:00:00 22 31 Noroeste 42 Noroeste 0 -- -- 80
2019-07-24 19:00:00 25.1 28 Noroeste 38 Noroeste 0 -- -- 69
2019-07-24 18:00:00 25.6 12 Norte 40 Noroeste 0 -- -- 67
2019-07-24 17:00:00 24.8 32 Noroeste 45 Noroeste 0 -- -- 69
2019-07-24 16:00:00 24.6 35 Noroeste 48 Noroeste 0 -- -- 68
2019-07-24 15:00:00 25 31 Norte 53 Noroeste 0 -- -- 66
2019-07-24 14:00:00 25 36 Norte 49 Noroeste 0 -- -- 67
2019-07-24 13:00:00 25 31 Noroeste 40 Noroeste 0 -- -- 66
2019-07-24 12:00:00 24.1 30 Norte 40 Norte 0 -- -- 68
2019-07-24 11:00:00 23.3 26 Norte 35 Noroeste 0 -- -- 68
2019-07-24 10:00:00 21.1 25 Norte 36 Noroeste 0 -- -- 78
2019-07-24 09:00:00 19.5 23 Norte 35 Norte 0 -- -- 87
2019-07-24 08:00:00 18.6 24 Norte 36 Norte 0 -- -- 92
2019-07-24 07:00:00 18.5 26 Norte 39 Noroeste 0 -- -- 93
2019-07-24 06:00:00 18.6 26 Norte 41 Noroeste 0 -- -- 93
2019-07-24 05:00:00 18.7 22 Norte 33 Norte 0 -- -- 92
2019-07-24 04:00:00 18.5 23 Norte 37 Norte 0 -- -- 91
2019-07-24 03:00:00 18.5 29 Norte 44 Norte 0 -- -- 91
2019-07-24 02:00:00 18.8 33 Norte 46 Norte 0 -- -- 90
2019-07-24 01:00:00 18.7 34 Norte 53 Norte 0 -- -- 89
2019-07-24 00:00:00 18.9 38 Noroeste 53 Norte 0 -- -- 87
2019-07-23 23:00:00 18.8 39 Noroeste 55 Noroeste 0 -- -- 87
2019-07-23 22:00:00 18.9 32 Norte 53 Noroeste 0 -- -- 86
2019-07-23 21:00:00 19.4 40 Noroeste 53 Noroeste 0 -- -- 84
2019-07-23 20:00:00 20 28 Norte 59 Noroeste 0 -- -- 82
2019-07-23 19:00:00 21 45 Noroeste 59 Noroeste 0 -- -- 76
2019-07-23 18:00:00 22.6 42 Noroeste 56 Noroeste 0 -- -- 70
2019-07-23 17:00:00 23.5 38 Noroeste 52 Noroeste 0 -- -- 67
2019-07-23 16:00:00 24.9 38 Noroeste 52 Noroeste 0 -- -- 63
2019-07-23 15:00:00 25.8 29 Noroeste 42 Noroeste 0 -- -- 59
2019-07-23 14:00:00 25.4 31 Noroeste 39 Noroeste 0 -- -- 61
2019-07-23 13:00:00 25.7 27 Noroeste 37 Norte 0 -- -- 59
2019-07-23 12:00:00 23.9 24 Norte 39 Norte 0 -- -- 64
2019-07-23 11:00:00 22.4 25 Norte 45 Noroeste 0 -- -- 69
2019-07-23 10:00:00 20.5 32 Norte 45 Norte 0 -- -- 77
2019-07-23 09:00:00 19.7 31 Norte 49 Norte 0 -- -- 82
2019-07-23 08:00:00 18.2 34 Norte 47 Norte 0 -- -- 87
2019-07-23 07:00:00 18 32 Norte 48 Noroeste 0 -- -- 88
2019-07-23 06:00:00 18 36 Noroeste 59 Noroeste 0 -- -- 88
2019-07-23 05:00:00 18.2 46 Noroeste 58 Noroeste 0 -- -- 87
2019-07-23 04:00:00 18.2 41 Norte 58 Norte 0 -- -- 87
2019-07-23 03:00:00 18.4 38 Norte 53 Noroeste 0 -- -- 87
2019-07-23 02:00:00 18.6 38 Noroeste 53 Noroeste 0 -- -- 87
2019-07-23 01:00:00 18.6 36 Norte 50 Norte 0 -- -- 87
2019-07-23 00:00:00 18.8 36 Noroeste 55 Norte 0 -- -- 86
2019-07-22 23:00:00 18.8 36 Noroeste 52 Noroeste 0 -- -- 88
2019-07-22 22:00:00 18.9 31 Norte 43 Norte 0 -- -- 87
2019-07-22 21:00:00 19.5 32 Noroeste 45 Noroeste 0 -- -- 84
2019-07-22 20:00:00 21.1 31 Noroeste 45 Noroeste 0 -- -- 77
2019-07-22 19:00:00 22.8 31 Noroeste 49 Noroeste 0 -- -- 70
2019-07-22 18:00:00 23.6 35 Noroeste 48 Noroeste 0 -- -- 67
2019-07-22 17:00:00 24.1 35 Noroeste 47 Noroeste 0 -- -- 65
2019-07-22 16:00:00 24.3 34 Noroeste 49 Noroeste 0 -- -- 64
2019-07-22 15:00:00 25 32 Norte 47 Noroeste 0 -- -- 62
2019-07-22 14:00:00 24.4 35 Noroeste 48 Noroeste 0 -- -- 65
2019-07-22 13:00:00 24.1 33 Norte 49 Norte 0 -- -- 66
2019-07-22 12:00:00 23.6 29 Norte 45 Noroeste 0 -- -- 68
2019-07-22 11:00:00 22.2 31 Norte 44 Noroeste 0 -- -- 72
2019-07-22 10:00:00 21 33 Norte 43 Norte 0 -- -- 77
2019-07-22 09:00:00 19.8 33 Norte 44 Norte 0 -- -- 82
2019-07-22 08:00:00 18.7 30 Norte 44 Norte 0 -- -- 86
2019-07-22 07:00:00 18.3 30 Norte 43 Norte 0 -- -- 87
2019-07-22 06:00:00 18.6 27 Norte 39 Norte 0 -- -- 86
2019-07-22 05:00:00 18.7 23 Norte 35 Norte 0 -- -- 84
2019-07-22 04:00:00 19 19 Norte 27 Norte 0 -- -- 84
2019-07-22 03:00:00 19 19 Norte 28 Norte 0 -- -- 84
2019-07-22 02:00:00 19.1 17 Norte 25 Norte 0 -- -- 86
2019-07-22 01:00:00 18.8 17 Norte 24 Norte 0 -- -- 89
2019-07-22 00:00:00 18.7 18 Norte 32 Norte 0 -- -- 89
2019-07-21 23:00:00 19.1 22 Norte 32 Norte 0 -- -- 88
2019-07-21 22:00:00 19.4 29 Norte 39 Norte 0 -- -- 85
2019-07-21 21:00:00 20.1 27 Norte 40 Noroeste 0 -- -- 81
2019-07-21 20:00:00 22 29 Norte 42 Noroeste 0 -- -- 72
2019-07-21 19:00:00 24.1 26 Norte 40 Noroeste 0 -- -- 66
2019-07-21 18:00:00 25.5 29 Norte 45 Noroeste 0 -- -- 62
2019-07-21 17:00:00 27.2 27 Norte 47 Noroeste 0 -- -- 57
2019-07-21 16:00:00 25.7 24 Nordeste 39 Nordeste 0 -- -- 60
2019-07-21 15:00:00 26.1 25 Nordeste 35 Nordeste 0 -- -- 59
2019-07-21 14:00:00 25.7 22 Nordeste 36 Nordeste 0 -- -- 61
2019-07-21 13:00:00 26 20 Nordeste 33 Este 0 -- -- 60
2019-07-21 12:00:00 25.1 12 Norte 29 Norte 0 -- -- 61
2019-07-21 11:00:00 23.4 14 Norte 31 Norte 0 -- -- 67
2019-07-21 10:00:00 21.9 15 Norte 25 Norte 0 -- -- 72
2019-07-21 09:00:00 20.4 14 Nordeste 19 Nordeste 0 -- -- 78
2019-07-21 08:00:00 19.1 8 Norte 16 Norte 0 -- -- 84
2019-07-21 07:00:00 18.8 13 Norte 18 Norte 0 -- -- 86
2019-07-21 06:00:00 19.2 9 Norte 18 Norte 0 -- -- 85
2019-07-21 05:00:00 19.4 13 Norte 21 Norte 0 -- -- 85
2019-07-21 04:00:00 19.3 13 Norte 20 Norte 0 -- -- 82
2019-07-21 03:00:00 19.5 13 Norte 18 Norte 0 -- -- 81
2019-07-21 02:00:00 19.8 11 Norte 21 Norte 0 -- -- 81
2019-07-21 01:00:00 19.8 14 Norte 23 Norte 0 -- -- 80
2019-07-21 00:00:00 19.9 15 Norte 27 Norte 0 -- -- 80
2019-07-20 23:00:00 20.1 13 Nordeste 27 Noroeste 0 -- -- 80
2019-07-20 22:00:00 19.6 21 Norte 35 Norte 0 -- -- 82
2019-07-20 21:00:00 20.4 26 Norte 34 Norte 0 -- -- 78
2019-07-20 20:00:00 21.1 24 Norte 51 Noroeste 0 -- -- 75
2019-07-20 19:00:00 22.1 35 Norte 49 Noroeste 0 -- -- 77
2019-07-20 18:00:00 23.5 34 Norte 50 Noroeste 0 -- -- 69
2019-07-20 17:00:00 24.2 32 Norte 48 Noroeste 0 -- -- 65
2019-07-20 16:00:00 24.4 32 Norte 44 Norte 0 -- -- 64
2019-07-20 15:00:00 24.7 27 Noroeste 41 Noroeste 0 -- -- 64
2019-07-20 14:00:00 24.5 22 Noroeste 39 Noroeste 0 -- -- 64
2019-07-20 13:00:00 23.7 23 Norte 37 Noroeste 0 -- -- 67
2019-07-20 12:00:00 23.3 22 Norte 39 Norte 0 -- -- 66
2019-07-20 11:00:00 21.5 25 Norte 37 Norte 0 -- -- 73
2019-07-20 10:00:00 20.2 21 Norte 32 Norte 0 -- -- 79
2019-07-20 09:00:00 19 22 Norte 32 Norte 0 -- -- 88
2019-07-20 08:00:00 18.8 19 Norte 31 Norte 0 -- -- 90
2019-07-20 07:00:00 18.8 21 Norte 33 Norte 0 -- -- 88
2019-07-20 06:00:00 18.7 15 Norte 37 Norte 0 -- -- 87
2019-07-20 05:00:00 18.3 21 Norte 38 Norte 0 -- -- 93
2019-07-20 04:00:00 18.1 26 Norte 42 Norte 0 -- -- 95
2019-07-20 03:00:00 19.3 24 Norte 36 Norte 0 -- -- 85
2019-07-20 02:00:00 19.3 19 Norte 37 Norte 0 -- -- 88
2019-07-20 01:00:00 19.5 26 Norte 36 Norte 0 -- -- 88
2019-07-20 00:00:00 19.7 20 Norte 37 Norte 0 -- -- 88
2019-07-19 23:00:00 20.3 26 Norte 41 Norte 0 -- -- 73
2019-07-19 22:00:00 20.2 28 Norte 43 Norte 0 -- -- 84
2019-07-19 21:00:00 20.2 26 Norte 44 Norte 0 -- -- 85
2019-07-19 20:00:00 20.5 30 Norte 46 Norte 0 -- -- 80
2019-07-19 19:00:00 21 34 Norte 46 Noroeste 0 -- -- 75
2019-07-19 18:00:00 22.6 34 Noroeste 52 Noroeste 0 -- -- 67
2019-07-19 17:00:00 23.4 35 Noroeste 48 Noroeste 0 -- -- 63
2019-07-19 16:00:00 23.7 32 Norte 47 Noroeste 0 -- -- 59
2019-07-19 15:00:00 23.7 33 Norte 45 Noroeste 0 -- -- 59
2019-07-19 14:00:00 22.9 34 Norte 45 Norte 0 -- -- 63
2019-07-19 13:00:00 21.9 29 Norte 42 Noroeste 0 -- -- 68
2019-07-19 12:00:00 20 26 Norte 39 Norte 0 -- -- 78
2019-07-19 11:00:00 19.9 28 Norte 44 Norte 0 -- -- 76
2019-07-19 10:00:00 19.7 27 Norte 43 Norte 0 -- -- 77
2019-07-19 09:00:00 19 32 Norte 46 Norte 0 -- -- 83
2019-07-19 08:00:00 18.9 26 Norte 44 Norte 0 -- -- 78
2019-07-19 07:00:00 18.7 32 Norte 42 Noroeste 0 -- -- 79
2019-07-19 06:00:00 18.8 27 Norte 40 Norte 0 -- -- 79
2019-07-19 05:00:00 18.9 28 Norte 41 Noroeste 0 -- -- 80
2019-07-19 04:00:00 18.9 22 Norte 42 Norte 0 -- -- 78
2019-07-19 03:00:00 19 28 Norte 40 Norte 0 -- -- 76
2019-07-19 02:00:00 19.1 26 Norte 39 Norte 0 -- -- 74
2019-07-19 01:00:00 19.2 23 Norte 40 Norte 0 -- -- 73
2019-07-19 00:00:00 19.2 27 Norte 43 Norte 0 -- -- 72